createdAt,value
2023-11-21T00:00:13.001Z,99278.81
2023-11-21T00:02:42.152Z,99272.53
2023-11-21T00:05:15.329Z,99279.06
2023-11-21T00:07:43.286Z,99277.44
2023-11-21T00:10:12.178Z,99285.84
2023-11-21T00:12:39.162Z,99272.25
2023-11-21T00:15:12.220Z,99279.59
2023-11-21T00:17:39.794Z,99274.44
2023-11-21T00:20:08.029Z,99282.84
2023-11-21T00:22:37.850Z,99275.22
2023-11-21T00:25:05.262Z,99276.34
2023-11-21T00:27:32.127Z,99281.78
2023-11-21T00:29:59.090Z,99286.41
2023-11-21T00:32:25.838Z,99285.03
2023-11-21T00:34:52.547Z,99281.50
2023-11-21T00:37:19.297Z,99281.50
2023-11-21T00:39:46.441Z,99293.19
2023-11-21T00:42:13.132Z,99285.84
2023-11-21T00:44:40.628Z,99292.13
2023-11-21T00:47:07.517Z,99289.66
2023-11-21T00:49:41.576Z,99294.03
2023-11-21T00:52:09.686Z,99301.38
2023-11-21T00:54:37.059Z,99301.63
2023-11-21T00:57:05.349Z,99297.00
2023-11-21T00:59:32.425Z,99304.34
2023-11-21T01:02:01.651Z,99306.28
2023-11-21T01:04:28.601Z,99306.53
2023-11-21T01:06:55.262Z,99311.72
2023-11-21T01:09:21.973Z,99313.63
2023-11-21T01:11:48.755Z,99311.16
2023-11-21T01:14:15.664Z,99311.97
2023-11-21T01:16:42.531Z,99306.53
2023-11-21T01:19:10.618Z,99310.88
2023-11-21T01:21:37.463Z,99310.88
2023-11-21T01:24:06.415Z,99313.63
2023-11-21T01:26:33.270Z,99314.69
2023-11-21T01:29:00.345Z,99315.50
2023-11-21T01:31:30.721Z,99315.50
2023-11-21T01:33:57.709Z,99316.59
2023-11-21T01:36:24.445Z,99320.41
2023-11-21T01:38:51.134Z,99315.75
2023-11-21T01:41:18.500Z,99313.31
2023-11-21T01:43:45.328Z,99311.44
2023-11-21T01:46:12.109Z,99311.44
2023-11-21T01:48:39.708Z,99312.50
2023-11-21T01:51:07.038Z,99320.66
2023-11-21T01:53:34.147Z,99316.59
2023-11-21T01:56:00.986Z,99316.59
2023-11-21T01:58:27.874Z,99322.03
2023-11-21T02:00:56.234Z,99317.66
2023-11-21T02:03:23.186Z,99314.94
2023-11-21T02:05:49.929Z,99312.22
2023-11-21T02:08:16.829Z,99312.22
2023-11-21T02:10:44.486Z,99307.06
2023-11-21T02:13:12.147Z,99316.28
2023-11-21T02:15:39.680Z,99319.00
2023-11-21T02:18:07.414Z,99318.19
2023-11-21T02:20:36.205Z,99327.47
2023-11-21T02:23:04.357Z,99323.63
2023-11-21T02:25:33.470Z,99331.78
2023-11-21T02:28:02.143Z,99329.06
2023-11-21T02:30:29.681Z,99323.63
2023-11-21T02:32:59.953Z,99332.06
2023-11-21T02:35:27.215Z,99322.03
2023-11-21T02:37:54.988Z,99316.56
2023-11-21T02:40:22.436Z,99325.00
2023-11-21T02:42:52.174Z,99330.44
2023-11-21T02:45:25.468Z,99326.06
2023-11-21T02:47:54.448Z,99330.16
2023-11-21T02:50:21.633Z,99333.41
2023-11-21T02:52:48.567Z,99333.38
2023-11-21T02:55:15.630Z,99330.66
2023-11-21T02:57:42.840Z,99327.34
2023-11-21T03:00:15.984Z,99333.53
2023-11-21T03:02:43.523Z,99338.66
2023-11-21T03:05:11.076Z,99336.13
2023-11-21T03:07:39.539Z,99339.91
2023-11-21T03:10:10.409Z,99340.44
2023-11-21T03:12:41.228Z,99345.03
2023-11-21T03:15:08.894Z,99340.22
2023-11-21T03:17:35.996Z,99344.03
2023-11-21T03:20:06.002Z,99341.59
2023-11-21T03:22:33.201Z,99347.63
2023-11-21T03:25:00.009Z,99353.28
2023-11-21T03:27:27.556Z,99353.50
2023-11-21T03:29:55.587Z,99351.31
2023-11-21T03:32:22.465Z,99352.13
2023-11-21T03:35:00.046Z,99345.34
2023-11-21T03:37:29.131Z,99352.94
2023-11-21T03:39:58.889Z,99350.47
2023-11-21T03:42:28.557Z,99352.63
2023-11-21T03:44:55.547Z,99351.75
2023-11-21T03:47:22.648Z,99365.91
2023-11-21T03:49:49.411Z,99360.47
2023-11-21T03:52:17.042Z,99360.97
2023-11-21T03:54:44.483Z,99365.28
2023-11-21T03:57:11.539Z,99369.34
2023-11-21T03:59:41.262Z,99356.00
2023-11-21T04:02:08.816Z,99361.97
2023-11-21T04:04:36.744Z,99358.94
2023-11-21T04:07:04.065Z,99363.81
2023-11-21T04:09:30.818Z,99363.28
2023-11-21T04:11:57.486Z,99363.28
2023-11-21T04:14:25.355Z,99366.22
2023-11-21T04:16:52.182Z,99368.13
2023-11-21T04:19:19.220Z,99368.44
2023-11-21T04:21:46.273Z,99367.59
2023-11-21T04:24:13.116Z,99364.88
2023-11-21T04:26:39.897Z,99369.25
2023-11-21T04:29:06.776Z,99375.25
2023-11-21T04:31:33.499Z,99373.94
2023-11-21T04:34:00.437Z,99379.09
2023-11-21T04:36:27.229Z,99373.34
2023-11-21T04:38:53.945Z,99385.31
2023-11-21T04:41:20.954Z,99383.66
2023-11-21T04:43:47.823Z,99383.38
2023-11-21T04:46:14.717Z,99388.28
2023-11-21T04:48:41.623Z,99391.81
2023-11-21T04:51:08.454Z,99394.25
2023-11-21T04:53:36.077Z,99400.81
2023-11-21T04:56:02.819Z,99398.66
2023-11-21T04:58:29.551Z,99406.34
2023-11-21T05:00:56.266Z,99394.97
2023-11-21T05:03:25.068Z,99397.44
2023-11-21T05:05:52.074Z,99398.84
2023-11-21T05:08:20.067Z,99398.88
2023-11-21T05:10:46.881Z,99399.16
2023-11-21T05:13:13.934Z,99409.25
2023-11-21T05:15:40.905Z,99409.81
2023-11-21T05:18:07.994Z,99405.19
2023-11-21T05:20:34.817Z,99409.31
2023-11-21T05:23:01.551Z,99415.28
2023-11-21T05:25:28.596Z,99418.56
2023-11-21T05:28:02.289Z,99422.66
2023-11-21T05:30:29.131Z,99417.19
2023-11-21T05:32:55.780Z,99429.72
2023-11-21T05:35:22.578Z,99425.94
2023-11-21T05:37:49.408Z,99429.47
2023-11-21T05:40:17.061Z,99426.19
2023-11-21T05:42:46.240Z,99431.06
2023-11-21T05:45:13.763Z,99435.44
2023-11-21T05:47:43.682Z,99432.72
2023-11-21T05:50:13.682Z,99433.28
2023-11-21T05:52:43.324Z,99433.28
2023-11-21T05:55:10.112Z,99434.63
2023-11-21T05:57:38.219Z,99433.50
2023-11-21T06:00:27.174Z,99443.53
2023-11-21T06:02:58.551Z,99437.56
2023-11-21T06:05:27.012Z,99441.63
2023-11-21T06:07:55.680Z,99451.13
2023-11-21T06:10:25.437Z,99445.38
2023-11-21T06:12:53.291Z,99449.69
2023-11-21T06:15:21.674Z,99452.38
2023-11-21T06:17:53.062Z,99459.16
2023-11-21T06:20:20.071Z,99451.25
2023-11-21T06:22:48.664Z,99462.41
2023-11-21T06:25:15.718Z,99464.34
2023-11-21T06:27:47.173Z,99462.75
2023-11-21T06:30:15.372Z,99460.34
2023-11-21T06:32:43.273Z,99458.19
2023-11-21T06:35:11.346Z,99465.28
2023-11-21T06:37:38.931Z,99472.38
2023-11-21T06:40:07.389Z,99479.75
2023-11-21T06:42:39.418Z,99474.06
2023-11-21T06:45:06.675Z,99476.50
2023-11-21T06:47:33.666Z,99475.44
2023-11-21T06:50:01.676Z,99470.28
2023-11-21T06:52:28.468Z,99469.47
2023-11-21T06:54:55.875Z,99476.56
2023-11-21T06:57:24.684Z,99472.50
2023-11-21T06:59:53.169Z,99473.31
2023-11-21T07:02:22.230Z,99479.56
2023-11-21T07:04:49.024Z,99475.22
2023-11-21T07:07:15.850Z,99486.66
2023-11-21T07:09:42.563Z,99481.75
2023-11-21T07:12:09.423Z,99483.94
2023-11-21T07:14:36.334Z,99486.09
2023-11-21T07:17:03.222Z,99490.44
2023-11-21T07:19:30.361Z,99494.56
2023-11-21T07:21:57.488Z,99495.09
2023-11-21T07:24:26.046Z,99498.66
2023-11-21T07:26:58.014Z,99495.66
2023-11-21T07:29:27.069Z,99502.25
2023-11-21T07:31:54.687Z,99504.16
2023-11-21T07:34:22.781Z,99511.25
2023-11-21T07:36:49.485Z,99504.69
2023-11-21T07:39:17.576Z,99506.09
2023-11-21T07:41:50.328Z,99520.56
2023-11-21T07:44:18.766Z,99520.03
2023-11-21T07:46:45.759Z,99522.25
2023-11-21T07:49:17.010Z,99517.66
2023-11-21T07:51:44.932Z,99518.28
2023-11-21T07:54:12.065Z,99521.84
2023-11-21T07:56:38.883Z,99533.03
2023-11-21T07:59:05.773Z,99532.53
2023-11-21T08:01:33.068Z,99533.91
2023-11-21T08:04:03.128Z,99530.94
2023-11-21T08:06:31.892Z,99534.78
2023-11-21T08:09:01.828Z,99537.81
2023-11-21T08:11:30.919Z,99532.91
2023-11-21T08:13:58.018Z,99530.69
2023-11-21T08:16:25.433Z,99536.94
2023-11-21T08:18:52.452Z,99543.16
2023-11-21T08:21:20.228Z,99537.88
2023-11-21T08:23:47.649Z,99541.72
2023-11-21T08:26:17.864Z,99535.16
2023-11-21T08:28:44.743Z,99542.69
2023-11-21T08:31:13.305Z,99545.94
2023-11-21T08:33:41.130Z,99553.25
2023-11-21T08:36:14.903Z,99546.47
2023-11-21T08:38:42.172Z,99538.88
2023-11-21T08:41:09.235Z,99542.97
2023-11-21T08:43:36.710Z,99544.91
2023-11-21T08:46:04.189Z,99547.94
2023-11-21T08:48:31.065Z,99540.28
2023-11-21T08:50:57.821Z,99543.63
2023-11-21T08:53:24.506Z,99538.47
2023-11-21T08:55:51.305Z,99553.94
2023-11-21T08:58:18.377Z,99549.59
2023-11-21T09:00:47.427Z,99547.81
2023-11-21T09:03:14.532Z,99554.09
2023-11-21T09:05:41.481Z,99553.25
2023-11-21T09:08:08.342Z,99564.66
2023-11-21T09:10:38.511Z,99565.16
2023-11-21T09:13:05.210Z,99566.22
2023-11-21T09:15:31.825Z,99570.81
2023-11-21T09:17:58.588Z,99578.91
2023-11-21T09:20:25.249Z,99576.38
2023-11-21T09:22:51.903Z,99582.91
2023-11-21T09:25:19.759Z,99583.50
2023-11-21T09:27:47.205Z,99581.84
2023-11-21T09:30:15.423Z,99582.66
2023-11-21T09:32:42.427Z,99590.03
2023-11-21T09:35:09.734Z,99588.72
2023-11-21T09:37:39.264Z,99589.78
2023-11-21T09:40:15.434Z,99596.69
2023-11-21T09:42:54.333Z,99593.97
2023-11-21T09:45:30.489Z,99595.88
2023-11-21T09:47:58.452Z,99603.16
2023-11-21T09:50:27.228Z,99596.06
2023-11-21T09:53:14.260Z,99615.03
2023-11-21T09:55:45.008Z,99606.28
2023-11-21T09:58:15.165Z,99616.28
2023-11-21T10:00:48.916Z,99627.69
2023-11-21T10:03:16.751Z,99631.44
2023-11-21T10:05:45.419Z,99636.22
2023-11-21T10:08:13.023Z,99641.03
2023-11-21T10:10:45.906Z,99643.09
2023-11-21T10:13:17.735Z,99646.25
2023-11-21T10:15:49.960Z,99646.13
2023-11-21T10:18:17.568Z,99648.72
2023-11-21T10:20:47.511Z,99652.88
2023-11-21T10:23:15.812Z,99665.81
2023-11-21T10:25:42.761Z,99662.78
2023-11-21T10:28:11.567Z,99670.53
2023-11-21T10:30:41.209Z,99663.63
2023-11-21T10:33:12.313Z,99673.00
2023-11-21T10:35:54.685Z,99680.03
2023-11-21T10:38:25.429Z,99676.00
2023-11-21T10:40:53.015Z,99677.72
2023-11-21T10:43:20.032Z,99676.81
2023-11-21T10:45:46.988Z,99687.56
2023-11-21T10:48:18.774Z,99685.34
2023-11-21T10:50:47.820Z,99688.16
2023-11-21T10:53:14.938Z,99691.19
2023-11-21T10:55:42.301Z,99692.28
2023-11-21T10:58:12.076Z,99691.63
2023-11-21T11:00:41.183Z,99695.88
2023-11-21T11:03:14.709Z,99698.09
2023-11-21T11:05:41.964Z,99711.19
2023-11-21T11:08:14.222Z,99706.25
2023-11-21T11:10:40.928Z,99709.78
2023-11-21T11:13:08.161Z,99715.13
2023-11-21T11:15:34.931Z,99709.38
2023-11-21T11:18:02.388Z,99717.03
2023-11-21T11:20:35.518Z,99719.81
2023-11-21T11:23:13.891Z,99718.53
2023-11-21T11:26:08.443Z,99722.88
2023-11-21T11:29:08.131Z,99730.09
2023-11-21T11:31:44.145Z,99728.44
2023-11-21T11:34:13.509Z,99731.75
2023-11-21T11:37:03.823Z,99733.31
2023-11-21T11:39:38.497Z,99732.16
2023-11-21T11:42:08.427Z,99737.09
2023-11-21T11:44:47.871Z,99739.50
2023-11-21T11:47:21.368Z,99735.13
2023-11-21T11:50:17.904Z,99737.75
2023-11-21T11:52:45.677Z,99741.19
2023-11-21T11:55:21.631Z,99740.34
2023-11-21T12:00:27.847Z,99749.88
2023-11-21T12:03:05.368Z,99754.25
2023-11-21T12:05:36.513Z,99751.19
2023-11-21T12:08:08.466Z,99748.13
2023-11-21T12:10:40.972Z,99749.69
2023-11-21T12:13:09.786Z,99757.34
2023-11-21T12:15:38.139Z,99763.84
2023-11-21T12:18:06.728Z,99763.41
2023-11-21T12:20:39.411Z,99772.88
2023-11-21T12:23:07.022Z,99773.47
2023-11-21T12:25:34.278Z,99772.88
2023-11-21T12:28:01.782Z,99775.94
2023-11-21T12:30:32.028Z,99776.91
2023-11-21T12:33:01.790Z,99797.91
2023-11-21T12:35:31.245Z,99785.50
2023-11-21T12:38:00.875Z,99791.53
2023-11-21T12:40:33.645Z,99790.94
2023-11-21T12:43:02.493Z,99795.41
2023-11-21T12:45:31.950Z,99789.34
2023-11-21T12:48:09.003Z,99784.63
2023-11-21T12:50:37.689Z,99791.00
2023-11-21T12:53:13.627Z,99795.53
2023-11-21T12:55:41.357Z,99799.19
2023-11-21T12:58:14.769Z,99809.31
2023-11-21T13:00:45.648Z,99812.38
2023-11-21T13:03:17.132Z,99811.78
2023-11-21T13:05:53.116Z,99811.09
2023-11-21T13:08:23.453Z,99818.41
2023-11-21T13:10:58.919Z,99826.44
2023-11-21T13:13:29.434Z,99820.66
2023-11-21T13:16:07.208Z,99825.81
2023-11-21T13:18:34.117Z,99825.50
2023-11-21T13:21:11.143Z,99836.00
2023-11-21T13:23:38.988Z,99847.44
2023-11-21T13:26:07.598Z,99848.97
2023-11-21T13:28:35.894Z,99839.41
2023-11-21T13:31:11.523Z,99846.72
2023-11-21T13:33:44.055Z,99848.59
2023-11-21T13:36:11.914Z,99851.91
2023-11-21T13:38:43.561Z,99854.47
2023-11-21T13:41:11.540Z,99860.84
2023-11-21T13:43:39.233Z,99871.56
2023-11-21T13:46:14.673Z,99867.19
2023-11-21T13:48:51.653Z,99871.56
2023-11-21T13:51:18.736Z,99872.22
2023-11-21T13:53:49.229Z,99883.44
2023-11-21T13:56:20.800Z,99869.53
2023-11-21T13:58:54.038Z,99891.44
2023-11-21T14:01:31.850Z,99886.84
2023-11-21T14:04:18.474Z,99894.97
2023-11-21T14:06:53.053Z,99892.47
2023-11-21T14:09:27.145Z,99897.31
2023-11-21T14:11:57.497Z,99902.47
2023-11-21T14:14:29.079Z,99904.03
2023-11-21T14:16:58.395Z,99904.03
2023-11-21T14:19:35.641Z,99910.03
2023-11-21T14:22:02.422Z,99915.22
2023-11-21T14:24:30.786Z,99922.72
2023-11-21T14:26:57.569Z,99920.47
2023-11-21T14:29:25.075Z,99926.00
2023-11-21T14:31:54.558Z,99922.47
2023-11-21T14:34:23.408Z,99927.28
2023-11-21T14:36:53.350Z,99923.41
2023-11-21T14:39:28.773Z,99925.75
2023-11-21T14:42:00.676Z,99933.72
2023-11-21T14:44:30.171Z,99945.56
2023-11-21T14:46:59.046Z,99948.84
2023-11-21T14:49:28.943Z,99951.78
2023-11-21T14:52:19.264Z,99952.00
2023-11-21T14:54:47.619Z,99963.41
2023-11-21T14:57:22.522Z,99970.13
2023-11-21T14:59:53.505Z,99971.94
2023-11-21T15:02:45.533Z,99975.53
2023-11-21T15:05:16.346Z,99977.53
2023-11-21T15:07:43.124Z,99985.25
2023-11-21T15:10:15.678Z,99978.50
2023-11-21T15:12:44.883Z,99974.00
2023-11-21T15:15:12.089Z,99981.84
2023-11-21T15:17:41.041Z,99980.81
2023-11-21T15:20:09.835Z,99982.47
2023-11-21T15:22:36.962Z,99984.94
2023-11-21T15:25:10.660Z,99982.47
2023-11-21T15:27:42.677Z,99982.69
2023-11-21T15:30:09.871Z,99987.06
2023-11-21T15:32:36.818Z,99991.19
2023-11-21T15:35:04.066Z,99995.03
2023-11-21T15:37:30.765Z,100000.56
2023-11-21T15:39:57.590Z,100000.13
2023-11-21T15:42:24.767Z,100009.59
2023-11-21T15:44:52.434Z,100016.88
2023-11-21T15:47:20.059Z,100027.47
2023-11-21T15:49:49.335Z,100024.97
2023-11-21T15:52:18.295Z,100023.09
2023-11-21T15:54:47.201Z,100037.00
2023-11-21T15:57:18.316Z,100035.94
2023-11-21T15:59:46.380Z,100035.34
2023-11-21T16:02:13.659Z,100041.00
2023-11-21T16:04:41.737Z,100042.41
2023-11-21T16:07:08.827Z,100043.00
2023-11-21T16:09:35.888Z,100038.88
2023-11-21T16:12:04.846Z,100049.44
2023-11-21T16:14:37.925Z,100051.50
2023-11-21T16:17:05.204Z,100048.81
2023-11-21T16:19:32.190Z,100054.66
2023-11-21T16:21:59.120Z,100047.38
2023-11-21T16:24:28.780Z,100057.13
2023-11-21T16:26:56.974Z,100067.34
2023-11-21T16:29:24.225Z,100072.75
2023-11-21T16:31:53.466Z,100075.44
2023-11-21T16:34:23.797Z,100081.91
2023-11-21T16:36:54.162Z,100082.72
2023-11-21T16:39:23.204Z,100078.59
2023-11-21T16:41:50.359Z,100079.44
2023-11-21T16:44:19.135Z,100083.81
2023-11-21T16:46:48.401Z,100084.47
2023-11-21T16:49:15.377Z,100095.06
2023-11-21T16:51:42.170Z,100088.22
2023-11-21T16:54:09.776Z,100104.44
2023-11-21T16:56:39.033Z,100104.25
2023-11-21T16:59:05.776Z,100109.66
2023-11-21T17:01:32.537Z,100115.53
2023-11-21T17:04:00.130Z,100113.69
2023-11-21T17:06:28.166Z,100113.25
2023-11-21T17:08:56.516Z,100120.78
2023-11-21T17:11:23.298Z,100130.97
2023-11-21T17:13:50.219Z,100136.03
2023-11-21T17:16:17.877Z,100139.38
2023-11-21T17:18:44.585Z,100144.09
2023-11-21T17:21:19.447Z,100149.06
2023-11-21T17:23:49.436Z,100157.41
2023-11-21T17:26:17.172Z,100153.34
2023-11-21T17:28:44.478Z,100151.66
2023-11-21T17:31:11.457Z,100149.38
2023-11-21T17:33:39.682Z,100150.47
2023-11-21T17:36:09.289Z,100161.25
2023-11-21T17:38:38.115Z,100163.13
2023-11-21T17:41:05.761Z,100161.25
2023-11-21T17:43:40.608Z,100167.91
2023-11-21T17:46:09.316Z,100174.53
2023-11-21T17:48:39.232Z,100174.56
2023-11-21T17:51:10.148Z,100185.34
2023-11-21T17:53:36.852Z,100180.09
2023-11-21T17:56:03.685Z,100190.09
2023-11-21T17:58:30.491Z,100193.84
2023-11-21T18:00:57.261Z,100189.47
2023-11-21T18:03:26.339Z,100197.38
2023-11-21T18:05:55.847Z,100200.06
2023-11-21T18:08:22.674Z,100187.41
2023-11-21T18:10:49.539Z,100200.72
2023-11-21T18:13:16.510Z,100210.69
2023-11-21T18:15:43.891Z,100204.25
2023-11-21T18:18:10.636Z,100210.25
2023-11-21T18:20:37.339Z,100208.59
2023-11-21T18:23:10.428Z,100214.63
2023-11-21T18:25:39.739Z,100223.56
2023-11-21T18:28:06.373Z,100227.94
2023-11-21T18:30:33.098Z,100233.94
2023-11-21T18:33:00.387Z,100231.69
2023-11-21T18:35:27.338Z,100238.53
2023-11-21T18:37:54.038Z,100241.44
2023-11-21T18:40:20.909Z,100253.88
2023-11-21T18:42:47.865Z,100257.00
2023-11-21T18:45:17.365Z,100264.50
2023-11-21T18:47:44.165Z,100268.88
2023-11-21T18:50:18.499Z,100272.84
2023-11-21T18:52:46.302Z,100278.44
2023-11-21T18:55:13.141Z,100281.13
2023-11-21T18:57:41.180Z,100293.19
2023-11-21T19:00:13.406Z,100291.75
2023-11-21T19:02:41.549Z,100289.31
2023-11-21T19:05:09.336Z,100287.22
2023-11-21T19:07:37.603Z,100289.91
2023-11-21T19:10:06.256Z,100296.16
2023-11-21T19:12:37.191Z,100299.88
2023-11-21T19:15:05.280Z,100300.50
2023-11-21T19:17:33.782Z,100298.44
2023-11-21T19:20:00.775Z,100296.97
2023-11-21T19:22:28.460Z,100309.22
2023-11-21T19:24:55.643Z,100306.75
2023-11-21T19:27:22.307Z,100312.75
2023-11-21T19:29:49.235Z,100314.84
2023-11-21T19:32:16.263Z,100321.69
2023-11-21T19:34:43.165Z,100319.41
2023-11-21T19:37:10.114Z,100325.66
2023-11-21T19:39:38.353Z,100334.78
2023-11-21T19:42:05.604Z,100334.78
2023-11-21T19:44:33.462Z,100344.13
2023-11-21T19:47:00.423Z,100345.38
2023-11-21T19:49:27.143Z,100348.69
2023-11-21T19:51:53.774Z,100349.53
2023-11-21T19:54:20.627Z,100358.66
2023-11-21T19:56:47.623Z,100359.91
2023-11-21T19:59:15.985Z,100367.38
2023-11-21T20:01:44.078Z,100375.28
2023-11-21T20:04:11.372Z,100382.53
2023-11-21T20:06:48.512Z,100383.13
2023-11-21T20:09:18.278Z,100385.44
2023-11-21T20:11:47.884Z,100382.09
2023-11-21T20:14:15.003Z,100388.75
2023-11-21T20:16:42.270Z,100388.53
2023-11-21T20:19:12.142Z,100388.75
2023-11-21T20:21:40.280Z,100389.38
2023-11-21T20:24:07.709Z,100400.16
2023-11-21T20:26:34.989Z,100398.50
2023-11-21T20:29:01.753Z,100412.19
2023-11-21T20:31:28.366Z,100422.16
2023-11-21T20:33:55.085Z,100421.91
2023-11-21T20:36:21.727Z,100431.88
2023-11-21T20:38:51.422Z,100436.63
2023-11-21T20:41:18.981Z,100441.00
2023-11-21T20:43:45.762Z,100430.00
2023-11-21T20:46:12.616Z,100443.88
2023-11-21T20:48:39.341Z,100442.25
2023-11-21T20:51:06.096Z,100449.28
2023-11-21T20:53:33.310Z,100451.75
2023-11-21T20:56:02.558Z,100455.28
2023-11-21T20:58:29.614Z,100451.72
2023-11-21T21:00:56.330Z,100451.94
2023-11-21T21:03:23.549Z,100457.53
2023-11-21T21:05:50.467Z,100460.03
2023-11-21T21:08:17.229Z,100463.34
2023-11-21T21:10:44.079Z,100453.38
2023-11-21T21:13:12.982Z,100458.34
2023-11-21T21:15:40.502Z,100462.72
2023-11-21T21:18:08.595Z,100467.63
2023-11-21T21:20:37.075Z,100472.75
2023-11-21T21:23:03.844Z,100473.38
2023-11-21T21:25:31.349Z,100487.00
2023-11-21T21:27:57.973Z,100477.84
2023-11-21T21:30:28.650Z,100479.44
2023-11-21T21:32:58.365Z,100487.22
2023-11-21T21:35:29.392Z,100494.47
2023-11-21T21:37:59.395Z,100495.41
2023-11-21T21:40:30.579Z,100498.13
2023-11-21T21:43:00.972Z,100508.25
2023-11-21T21:45:28.732Z,100514.47
2023-11-21T21:47:55.886Z,100519.25
2023-11-21T21:50:25.752Z,100519.47
2023-11-21T21:52:52.587Z,100522.00
2023-11-21T21:55:19.388Z,100523.47
2023-11-21T21:57:46.677Z,100520.59
2023-11-21T22:00:16.796Z,100527.47
2023-11-21T22:02:43.995Z,100531.00
2023-11-21T22:05:12.943Z,100536.16
2023-11-21T22:07:41.247Z,100527.63
2023-11-21T22:10:09.447Z,100538.63
2023-11-21T22:12:36.734Z,100536.50
2023-11-21T22:15:05.714Z,100545.41
2023-11-21T22:17:32.601Z,100542.09
2023-11-21T22:19:59.391Z,100541.03
2023-11-21T22:22:27.887Z,100548.03
2023-11-21T22:24:54.924Z,100547.19
2023-11-21T22:27:21.712Z,100545.50
2023-11-21T22:29:48.348Z,100546.34
2023-11-21T22:32:15.257Z,100548.72
2023-11-21T22:34:42.165Z,100550.75
2023-11-21T22:37:10.581Z,100542.25
2023-11-21T22:39:37.199Z,100545.34
2023-11-21T22:42:04.828Z,100547.25
2023-11-21T22:44:31.634Z,100553.91
2023-11-21T22:47:01.475Z,100554.94
2023-11-21T22:49:31.495Z,100548.28
2023-11-21T22:51:59.003Z,100555.06
2023-11-21T22:54:26.158Z,100558.81
2023-11-21T22:56:52.782Z,100558.97
2023-11-21T22:59:22.457Z,100556.66
2023-11-21T23:01:51.427Z,100555.66
2023-11-21T23:04:21.909Z,100551.66
2023-11-21T23:06:49.522Z,100561.13
2023-11-21T23:09:17.540Z,100555.34
2023-11-21T23:11:45.148Z,100561.13
2023-11-21T23:14:12.316Z,100555.97
2023-11-21T23:16:42.644Z,100565.13
2023-11-21T23:19:16.370Z,100564.56
2023-11-21T23:21:44.102Z,100574.50
2023-11-21T23:24:12.209Z,100583.03
2023-11-21T23:26:40.215Z,100581.03
2023-11-21T23:29:08.119Z,100571.28
2023-11-21T23:31:36.168Z,100583.06
2023-11-21T23:34:03.888Z,100584.28
2023-11-21T23:36:31.477Z,100581.88
2023-11-21T23:38:58.394Z,100589.66
2023-11-21T23:41:25.153Z,100598.78
2023-11-21T23:43:52.120Z,100600.41
2023-11-21T23:46:19.341Z,100603.88
2023-11-21T23:48:47.151Z,100613.00
2023-11-21T23:51:14.452Z,100607.59
2023-11-21T23:53:41.305Z,100597.00
2023-11-21T23:56:08.381Z,100602.59
2023-11-21T23:58:39.281Z,100607.97
